sensor_id;sensor_type;location;lat;lon;timestamp;P1;durP1;ratioP1;P2;durP2;ratioP2
71570;SDS011;59407;42.682;23.322;2023-03-03T00:02:16;6.70;;;3.83;;
71570;SDS011;59407;42.682;23.322;2023-03-03T00:04:42;6.10;;;4.20;;
71570;SDS011;59407;42.682;23.322;2023-03-03T00:07:10;5.65;;;3.90;;
71570;SDS011;59407;42.682;23.322;2023-03-03T00:09:36;7.23;;;4.07;;
71570;SDS011;59407;42.682;23.322;2023-03-03T00:12:01;6.28;;;4.30;;
71570;SDS011;59407;42.682;23.322;2023-03-03T00:14:45;7.07;;;3.92;;
71570;SDS011;59407;42.682;23.322;2023-03-03T00:17:17;7.93;;;4.77;;
71570;SDS011;59407;42.682;23.322;2023-03-03T00:19:48;6.93;;;4.32;;
71570;SDS011;59407;42.682;23.322;2023-03-03T00:22:21;6.83;;;4.40;;
71570;SDS011;59407;42.682;23.322;2023-03-03T00:25:39;7.43;;;4.85;;
71570;SDS011;59407;42.682;23.322;2023-03-03T00:27:49;8.20;;;5.30;;
71570;SDS011;59407;42.682;23.322;2023-03-03T00:30:24;9.10;;;5.33;;
71570;SDS011;59407;42.682;23.322;2023-03-03T00:32:52;8.77;;;5.10;;
71570;SDS011;59407;42.682;23.322;2023-03-03T00:37:59;10.02;;;5.25;;
71570;SDS011;59407;42.682;23.322;2023-03-03T00:40:37;8.53;;;5.70;;
71570;SDS011;59407;42.682;23.322;2023-03-03T00:43:27;8.30;;;5.20;;
71570;SDS011;59407;42.682;23.322;2023-03-03T00:45:57;9.32;;;6.10;;
71570;SDS011;59407;42.682;23.322;2023-03-03T00:48:30;8.88;;;4.47;;
71570;SDS011;59407;42.682;23.322;2023-03-03T00:51:25;9.40;;;5.70;;
71570;SDS011;59407;42.682;23.322;2023-03-03T00:53:53;8.40;;;4.67;;
71570;SDS011;59407;42.682;23.322;2023-03-03T00:56:19;8.52;;;5.25;;
71570;SDS011;59407;42.682;23.322;2023-03-03T00:58:45;8.63;;;6.05;;
71570;SDS011;59407;42.682;23.322;2023-03-03T01:01:12;11.48;;;5.95;;
71570;SDS011;59407;42.682;23.322;2023-03-03T01:03:39;9.00;;;5.13;;
71570;SDS011;59407;42.682;23.322;2023-03-03T01:06:04;8.50;;;5.17;;
71570;SDS011;59407;42.682;23.322;2023-03-03T01:08:31;9.30;;;5.25;;
71570;SDS011;59407;42.682;23.322;2023-03-03T01:10:58;8.07;;;5.13;;
71570;SDS011;59407;42.682;23.322;2023-03-03T01:13:29;9.33;;;5.43;;
71570;SDS011;59407;42.682;23.322;2023-03-03T01:15:57;8.10;;;5.15;;
71570;SDS011;59407;42.682;23.322;2023-03-03T01:18:23;7.38;;;5.28;;
71570;SDS011;59407;42.682;23.322;2023-03-03T01:20:48;8.80;;;4.90;;
71570;SDS011;59407;42.682;23.322;2023-03-03T01:23:14;9.15;;;6.18;;
71570;SDS011;59407;42.682;23.322;2023-03-03T01:25:40;8.43;;;5.15;;
71570;SDS011;59407;42.682;23.322;2023-03-03T01:28:07;9.57;;;5.60;;
71570;SDS011;59407;42.682;23.322;2023-03-03T01:30:33;10.20;;;5.68;;
71570;SDS011;59407;42.682;23.322;2023-03-03T01:32:59;10.45;;;5.78;;
71570;SDS011;59407;42.682;23.322;2023-03-03T01:35:27;8.47;;;5.00;;
71570;SDS011;59407;42.682;23.322;2023-03-03T01:37:54;10.30;;;5.60;;
71570;SDS011;59407;42.682;23.322;2023-03-03T01:40:22;9.80;;;5.28;;
71570;SDS011;59407;42.682;23.322;2023-03-03T01:42:50;9.15;;;5.32;;
71570;SDS011;59407;42.682;23.322;2023-03-03T01:45:24;9.67;;;5.37;;
71570;SDS011;59407;42.682;23.322;2023-03-03T01:53:05;9.00;;;5.35;;
71570;SDS011;59407;42.682;23.322;2023-03-03T01:55:36;9.65;;;6.00;;
71570;SDS011;59407;42.682;23.322;2023-03-03T01:58:05;10.23;;;5.50;;
71570;SDS011;59407;42.682;23.322;2023-03-03T02:00:35;9.98;;;5.60;;
71570;SDS011;59407;42.682;23.322;2023-03-03T02:03:07;10.45;;;5.82;;
71570;SDS011;59407;42.682;23.322;2023-03-03T02:05:33;9.48;;;5.35;;
71570;SDS011;59407;42.682;23.322;2023-03-03T02:08:00;7.20;;;4.85;;
71570;SDS011;59407;42.682;23.322;2023-03-03T02:10:27;9.77;;;5.57;;
71570;SDS011;59407;42.682;23.322;2023-03-03T02:12:56;10.75;;;5.55;;
71570;SDS011;59407;42.682;23.322;2023-03-03T02:15:29;9.05;;;5.40;;
71570;SDS011;59407;42.682;23.322;2023-03-03T02:18:04;7.45;;;4.30;;
71570;SDS011;59407;42.682;23.322;2023-03-03T02:20:51;7.82;;;4.80;;
71570;SDS011;59407;42.682;23.322;2023-03-03T02:29:03;8.00;;;4.70;;
71570;SDS011;59407;42.682;23.322;2023-03-03T02:31:29;7.18;;;4.75;;
71570;SDS011;59407;42.682;23.322;2023-03-03T02:33:56;8.82;;;4.72;;
71570;SDS011;59407;42.682;23.322;2023-03-03T02:36:29;8.80;;;5.23;;
71570;SDS011;59407;42.682;23.322;2023-03-03T02:42:05;7.47;;;5.30;;
71570;SDS011;59407;42.682;23.322;2023-03-03T02:44:35;10.98;;;5.78;;
71570;SDS011;59407;42.682;23.322;2023-03-03T02:47:02;8.63;;;4.95;;
71570;SDS011;59407;42.682;23.322;2023-03-03T02:49:30;7.93;;;5.10;;
71570;SDS011;59407;42.682;23.322;2023-03-03T02:51:58;7.07;;;4.63;;
71570;SDS011;59407;42.682;23.322;2023-03-03T02:54:26;7.68;;;4.43;;
71570;SDS011;59407;42.682;23.322;2023-03-03T02:56:54;7.20;;;4.57;;
71570;SDS011;59407;42.682;23.322;2023-03-03T02:59:20;7.47;;;5.17;;
71570;SDS011;59407;42.682;23.322;2023-03-03T03:01:46;7.18;;;4.93;;
71570;SDS011;59407;42.682;23.322;2023-03-03T03:04:25;7.93;;;5.07;;
71570;SDS011;59407;42.682;23.322;2023-03-03T03:06:52;7.63;;;4.82;;
71570;SDS011;59407;42.682;23.322;2023-03-03T03:09:19;10.13;;;5.70;;
71570;SDS011;59407;42.682;23.322;2023-03-03T03:11:46;8.10;;;4.80;;
71570;SDS011;59407;42.682;23.322;2023-03-03T03:14:12;9.05;;;5.18;;
71570;SDS011;59407;42.682;23.322;2023-03-03T03:16:40;9.68;;;5.90;;
71570;SDS011;59407;42.682;23.322;2023-03-03T03:19:08;9.13;;;6.03;;
71570;SDS011;59407;42.682;23.322;2023-03-03T03:21:33;7.93;;;4.70;;
71570;SDS011;59407;42.682;23.322;2023-03-03T03:23:59;9.00;;;5.40;;
71570;SDS011;59407;42.682;23.322;2023-03-03T03:26:26;10.37;;;5.50;;
71570;SDS011;59407;42.682;23.322;2023-03-03T03:28:52;9.02;;;5.47;;
71570;SDS011;59407;42.682;23.322;2023-03-03T03:31:19;10.95;;;6.57;;
71570;SDS011;59407;42.682;23.322;2023-03-03T03:33:45;11.80;;;6.55;;
71570;SDS011;59407;42.682;23.322;2023-03-03T03:36:12;11.38;;;6.25;;
71570;SDS011;59407;42.682;23.322;2023-03-03T03:38:39;11.63;;;6.60;;
71570;SDS011;59407;42.682;23.322;2023-03-03T03:41:07;12.50;;;6.90;;
71570;SDS011;59407;42.682;23.322;2023-03-03T03:43:32;10.50;;;6.07;;
71570;SDS011;59407;42.682;23.322;2023-03-03T03:45:58;10.60;;;6.97;;
71570;SDS011;59407;42.682;23.322;2023-03-03T03:48:24;12.60;;;6.47;;
71570;SDS011;59407;42.682;23.322;2023-03-03T03:50:51;13.20;;;6.93;;
71570;SDS011;59407;42.682;23.322;2023-03-03T03:53:17;13.63;;;7.95;;
71570;SDS011;59407;42.682;23.322;2023-03-03T03:55:43;14.10;;;7.78;;
71570;SDS011;59407;42.682;23.322;2023-03-03T03:58:12;14.60;;;8.27;;
71570;SDS011;59407;42.682;23.322;2023-03-03T04:00:40;14.13;;;8.57;;
71570;SDS011;59407;42.682;23.322;2023-03-03T04:03:06;16.83;;;8.95;;
71570;SDS011;59407;42.682;23.322;2023-03-03T04:05:33;13.48;;;8.35;;
71570;SDS011;59407;42.682;23.322;2023-03-03T04:07:59;14.60;;;8.57;;
71570;SDS011;59407;42.682;23.322;2023-03-03T04:10:27;16.60;;;9.70;;
71570;SDS011;59407;42.682;23.322;2023-03-03T04:12:52;15.73;;;9.75;;
71570;SDS011;59407;42.682;23.322;2023-03-03T04:15:19;18.92;;;10.13;;
71570;SDS011;59407;42.682;23.322;2023-03-03T04:17:46;17.13;;;9.63;;
71570;SDS011;59407;42.682;23.322;2023-03-03T04:20:13;15.43;;;9.63;;
71570;SDS011;59407;42.682;23.322;2023-03-03T04:22:41;15.32;;;9.15;;
71570;SDS011;59407;42.682;23.322;2023-03-03T04:25:07;14.50;;;8.10;;
71570;SDS011;59407;42.682;23.322;2023-03-03T04:27:38;13.40;;;8.07;;
71570;SDS011;59407;42.682;23.322;2023-03-03T04:30:05;16.10;;;9.20;;
71570;SDS011;59407;42.682;23.322;2023-03-03T04:32:34;17.73;;;9.68;;
71570;SDS011;59407;42.682;23.322;2023-03-03T04:35:02;16.25;;;9.10;;
71570;SDS011;59407;42.682;23.322;2023-03-03T04:37:28;14.98;;;7.97;;
71570;SDS011;59407;42.682;23.322;2023-03-03T04:39:55;16.27;;;9.13;;
71570;SDS011;59407;42.682;23.322;2023-03-03T04:42:23;17.20;;;8.57;;
71570;SDS011;59407;42.682;23.322;2023-03-03T04:44:50;14.70;;;8.30;;
71570;SDS011;59407;42.682;23.322;2023-03-03T04:47:16;13.77;;;8.77;;
71570;SDS011;59407;42.682;23.322;2023-03-03T04:49:44;17.35;;;8.98;;
71570;SDS011;59407;42.682;23.322;2023-03-03T04:52:11;15.85;;;8.05;;
71570;SDS011;59407;42.682;23.322;2023-03-03T04:54:37;17.03;;;9.10;;
71570;SDS011;59407;42.682;23.322;2023-03-03T04:57:02;15.30;;;8.68;;
71570;SDS011;59407;42.682;23.322;2023-03-03T04:59:28;17.40;;;9.20;;
71570;SDS011;59407;42.682;23.322;2023-03-03T05:01:53;16.00;;;9.07;;
71570;SDS011;59407;42.682;23.322;2023-03-03T05:04:19;19.23;;;10.37;;
71570;SDS011;59407;42.682;23.322;2023-03-03T05:06:44;18.98;;;10.65;;
71570;SDS011;59407;42.682;23.322;2023-03-03T05:09:11;20.15;;;10.90;;
71570;SDS011;59407;42.682;23.322;2023-03-03T05:11:38;19.70;;;10.55;;
71570;SDS011;59407;42.682;23.322;2023-03-03T05:14:05;18.57;;;9.93;;
71570;SDS011;59407;42.682;23.322;2023-03-03T05:16:33;18.70;;;10.02;;
71570;SDS011;59407;42.682;23.322;2023-03-03T05:18:59;20.90;;;10.02;;
71570;SDS011;59407;42.682;23.322;2023-03-03T05:21:25;19.93;;;9.90;;
71570;SDS011;59407;42.682;23.322;2023-03-03T05:23:53;21.48;;;11.13;;
71570;SDS011;59407;42.682;23.322;2023-03-03T05:26:20;18.27;;;10.30;;
71570;SDS011;59407;42.682;23.322;2023-03-03T05:28:46;17.25;;;10.55;;
71570;SDS011;59407;42.682;23.322;2023-03-03T05:31:13;17.67;;;9.63;;
71570;SDS011;59407;42.682;23.322;2023-03-03T05:33:38;19.98;;;10.23;;
71570;SDS011;59407;42.682;23.322;2023-03-03T05:36:05;18.43;;;10.57;;
71570;SDS011;59407;42.682;23.322;2023-03-03T05:38:31;19.90;;;10.98;;
71570;SDS011;59407;42.682;23.322;2023-03-03T05:40:57;20.23;;;10.57;;
71570;SDS011;59407;42.682;23.322;2023-03-03T05:43:23;18.38;;;10.23;;
71570;SDS011;59407;42.682;23.322;2023-03-03T05:45:54;18.20;;;10.48;;
71570;SDS011;59407;42.682;23.322;2023-03-03T05:48:20;17.43;;;9.97;;
71570;SDS011;59407;42.682;23.322;2023-03-03T05:50:46;20.05;;;11.45;;
71570;SDS011;59407;42.682;23.322;2023-03-03T05:53:11;21.67;;;13.07;;
71570;SDS011;59407;42.682;23.322;2023-03-03T05:55:38;21.40;;;11.60;;
71570;SDS011;59407;42.682;23.322;2023-03-03T05:58:04;20.27;;;10.73;;
71570;SDS011;59407;42.682;23.322;2023-03-03T06:00:31;27.25;;;11.75;;
71570;SDS011;59407;42.682;23.322;2023-03-03T06:02:58;23.70;;;11.80;;
71570;SDS011;59407;42.682;23.322;2023-03-03T06:05:25;17.70;;;10.25;;
71570;SDS011;59407;42.682;23.322;2023-03-03T06:07:51;19.43;;;10.30;;
71570;SDS011;59407;42.682;23.322;2023-03-03T06:10:16;17.60;;;10.38;;
71570;SDS011;59407;42.682;23.322;2023-03-03T06:12:45;21.10;;;10.57;;
71570;SDS011;59407;42.682;23.322;2023-03-03T06:15:13;15.60;;;9.02;;
71570;SDS011;59407;42.682;23.322;2023-03-03T06:17:38;17.53;;;9.37;;
71570;SDS011;59407;42.682;23.322;2023-03-03T06:20:04;15.83;;;9.00;;
71570;SDS011;59407;42.682;23.322;2023-03-03T06:22:32;18.02;;;9.35;;
71570;SDS011;59407;42.682;23.322;2023-03-03T06:25:00;16.13;;;9.07;;
71570;SDS011;59407;42.682;23.322;2023-03-03T06:27:26;15.82;;;9.00;;
71570;SDS011;59407;42.682;23.322;2023-03-03T06:29:54;19.77;;;9.50;;
71570;SDS011;59407;42.682;23.322;2023-03-03T06:32:21;13.67;;;8.67;;
71570;SDS011;59407;42.682;23.322;2023-03-03T06:34:50;14.32;;;8.95;;
71570;SDS011;59407;42.682;23.322;2023-03-03T06:37:16;19.27;;;10.00;;
71570;SDS011;59407;42.682;23.322;2023-03-03T06:39:44;15.85;;;8.82;;
71570;SDS011;59407;42.682;23.322;2023-03-03T06:42:11;17.75;;;9.65;;
71570;SDS011;59407;42.682;23.322;2023-03-03T06:44:40;16.98;;;9.38;;
71570;SDS011;59407;42.682;23.322;2023-03-03T06:47:13;17.63;;;9.33;;
71570;SDS011;59407;42.682;23.322;2023-03-03T06:49:39;16.67;;;9.07;;
71570;SDS011;59407;42.682;23.322;2023-03-03T06:52:13;15.48;;;8.65;;
71570;SDS011;59407;42.682;23.322;2023-03-03T06:54:41;13.60;;;8.50;;
71570;SDS011;59407;42.682;23.322;2023-03-03T06:57:14;20.73;;;10.47;;
71570;SDS011;59407;42.682;23.322;2023-03-03T06:59:51;19.55;;;11.38;;
71570;SDS011;59407;42.682;23.322;2023-03-03T07:02:17;22.73;;;12.07;;
71570;SDS011;59407;42.682;23.322;2023-03-03T07:04:43;15.30;;;9.07;;
71570;SDS011;59407;42.682;23.322;2023-03-03T07:07:15;21.52;;;12.27;;
71570;SDS011;59407;42.682;23.322;2023-03-03T07:09:45;18.45;;;11.02;;
71570;SDS011;59407;42.682;23.322;2023-03-03T07:12:15;14.50;;;8.07;;
71570;SDS011;59407;42.682;23.322;2023-03-03T07:14:45;16.47;;;8.27;;
71570;SDS011;59407;42.682;23.322;2023-03-03T07:17:23;15.25;;;7.97;;
71570;SDS011;59407;42.682;23.322;2023-03-03T07:19:50;15.63;;;9.25;;
71570;SDS011;59407;42.682;23.322;2023-03-03T07:22:21;19.17;;;9.90;;
71570;SDS011;59407;42.682;23.322;2023-03-03T07:24:56;17.13;;;8.98;;
71570;SDS011;59407;42.682;23.322;2023-03-03T07:27:30;16.23;;;8.95;;
71570;SDS011;59407;42.682;23.322;2023-03-03T07:30:38;14.82;;;8.27;;
71570;SDS011;59407;42.682;23.322;2023-03-03T07:32:48;15.05;;;9.02;;
71570;SDS011;59407;42.682;23.322;2023-03-03T07:40:53;15.60;;;7.32;;
71570;SDS011;59407;42.682;23.322;2023-03-03T07:43:30;13.55;;;8.25;;
71570;SDS011;59407;42.682;23.322;2023-03-03T07:49:29;14.57;;;7.63;;
71570;SDS011;59407;42.682;23.322;2023-03-03T07:52:00;11.75;;;7.28;;
71570;SDS011;59407;42.682;23.322;2023-03-03T07:54:42;13.75;;;8.57;;
71570;SDS011;59407;42.682;23.322;2023-03-03T07:57:25;12.77;;;7.80;;
71570;SDS011;59407;42.682;23.322;2023-03-03T08:03:19;12.10;;;7.30;;
71570;SDS011;59407;42.682;23.322;2023-03-03T08:05:50;15.18;;;9.13;;
71570;SDS011;59407;42.682;23.322;2023-03-03T08:08:21;12.82;;;7.88;;
71570;SDS011;59407;42.682;23.322;2023-03-03T08:10:57;13.33;;;7.70;;
71570;SDS011;59407;42.682;23.322;2023-03-03T08:18:59;15.15;;;8.48;;
71570;SDS011;59407;42.682;23.322;2023-03-03T08:21:26;12.15;;;7.55;;
71570;SDS011;59407;42.682;23.322;2023-03-03T08:23:53;14.00;;;7.70;;
71570;SDS011;59407;42.682;23.322;2023-03-03T08:26:21;13.25;;;8.13;;
71570;SDS011;59407;42.682;23.322;2023-03-03T08:28:49;14.45;;;8.75;;
71570;SDS011;59407;42.682;23.322;2023-03-03T08:31:16;14.40;;;8.57;;
71570;SDS011;59407;42.682;23.322;2023-03-03T08:33:42;14.93;;;8.88;;
71570;SDS011;59407;42.682;23.322;2023-03-03T08:36:09;16.37;;;8.63;;
71570;SDS011;59407;42.682;23.322;2023-03-03T08:38:36;14.30;;;7.40;;
71570;SDS011;59407;42.682;23.322;2023-03-03T08:41:03;15.50;;;9.35;;
71570;SDS011;59407;42.682;23.322;2023-03-03T08:43:29;14.65;;;9.70;;
71570;SDS011;59407;42.682;23.322;2023-03-03T08:45:58;15.68;;;9.35;;
71570;SDS011;59407;42.682;23.322;2023-03-03T08:48:26;14.63;;;8.37;;
71570;SDS011;59407;42.682;23.322;2023-03-03T08:50:53;16.88;;;9.60;;
71570;SDS011;59407;42.682;23.322;2023-03-03T08:53:20;18.80;;;10.00;;
71570;SDS011;59407;42.682;23.322;2023-03-03T08:55:46;16.52;;;8.20;;
71570;SDS011;59407;42.682;23.322;2023-03-03T08:58:13;17.48;;;9.65;;
71570;SDS011;59407;42.682;23.322;2023-03-03T09:00:40;18.10;;;8.67;;
71570;SDS011;59407;42.682;23.322;2023-03-03T09:03:07;18.15;;;8.75;;
71570;SDS011;59407;42.682;23.322;2023-03-03T09:05:34;15.43;;;8.98;;
71570;SDS011;59407;42.682;23.322;2023-03-03T09:08:03;15.77;;;8.48;;
71570;SDS011;59407;42.682;23.322;2023-03-03T09:10:32;17.88;;;9.98;;
71570;SDS011;59407;42.682;23.322;2023-03-03T09:13:09;15.23;;;8.93;;
71570;SDS011;59407;42.682;23.322;2023-03-03T09:15:39;15.43;;;8.30;;
71570;SDS011;59407;42.682;23.322;2023-03-03T09:20:49;15.77;;;8.50;;
71570;SDS011;59407;42.682;23.322;2023-03-03T09:23:31;14.40;;;8.07;;
71570;SDS011;59407;42.682;23.322;2023-03-03T09:26:14;12.07;;;7.97;;
71570;SDS011;59407;42.682;23.322;2023-03-03T09:28:42;13.77;;;8.15;;
71570;SDS011;59407;42.682;23.322;2023-03-03T09:31:16;16.63;;;8.90;;
71570;SDS011;59407;42.682;23.322;2023-03-03T09:33:50;15.57;;;8.20;;
71570;SDS011;59407;42.682;23.322;2023-03-03T09:38:51;14.07;;;8.07;;
71570;SDS011;59407;42.682;23.322;2023-03-03T09:41:42;11.95;;;7.20;;
71570;SDS011;59407;42.682;23.322;2023-03-03T09:52:36;12.07;;;7.13;;
71570;SDS011;59407;42.682;23.322;2023-03-03T09:58:08;11.95;;;7.05;;
71570;SDS011;59407;42.682;23.322;2023-03-03T10:06:37;11.10;;;7.07;;
71570;SDS011;59407;42.682;23.322;2023-03-03T10:18:17;13.05;;;8.10;;
71570;SDS011;59407;42.682;23.322;2023-03-03T10:20:58;13.27;;;8.20;;
71570;SDS011;59407;42.682;23.322;2023-03-03T10:23:50;11.52;;;7.05;;
71570;SDS011;59407;42.682;23.322;2023-03-03T10:29:10;9.27;;;6.05;;
71570;SDS011;59407;42.682;23.322;2023-03-03T10:37:47;11.88;;;7.40;;
71570;SDS011;59407;42.682;23.322;2023-03-03T10:43:23;11.65;;;7.22;;
71570;SDS011;59407;42.682;23.322;2023-03-03T10:49:57;12.77;;;7.70;;
71570;SDS011;59407;42.682;23.322;2023-03-03T11:00:44;14.95;;;8.85;;
71570;SDS011;59407;42.682;23.322;2023-03-03T11:08:50;13.75;;;8.48;;
71570;SDS011;59407;42.682;23.322;2023-03-03T11:12:02;14.60;;;8.70;;
71570;SDS011;59407;42.682;23.322;2023-03-03T11:25:24;20.42;;;11.73;;
71570;SDS011;59407;42.682;23.322;2023-03-03T11:27:59;18.48;;;11.55;;
71570;SDS011;59407;42.682;23.322;2023-03-03T11:39:24;19.15;;;11.85;;
71570;SDS011;59407;42.682;23.322;2023-03-03T11:42:27;22.40;;;12.10;;
71570;SDS011;59407;42.682;23.322;2023-03-03T11:45:12;21.38;;;12.15;;
71570;SDS011;59407;42.682;23.322;2023-03-03T11:47:51;18.58;;;11.93;;
71570;SDS011;59407;42.682;23.322;2023-03-03T11:50:21;23.13;;;13.93;;
71570;SDS011;59407;42.682;23.322;2023-03-03T11:55:41;25.45;;;15.18;;
71570;SDS011;59407;42.682;23.322;2023-03-03T12:03:48;20.50;;;13.03;;
71570;SDS011;59407;42.682;23.322;2023-03-03T12:06:27;24.00;;;13.38;;
71570;SDS011;59407;42.682;23.322;2023-03-03T12:32:17;23.77;;;11.98;;
71570;SDS011;59407;42.682;23.322;2023-03-03T12:35:08;18.80;;;11.80;;
71570;SDS011;59407;42.682;23.322;2023-03-03T12:44:13;20.50;;;11.30;;
71570;SDS011;59407;42.682;23.322;2023-03-03T12:52:32;17.03;;;9.93;;
71570;SDS011;59407;42.682;23.322;2023-03-03T12:55:10;14.75;;;9.00;;
71570;SDS011;59407;42.682;23.322;2023-03-03T13:06:29;17.27;;;10.17;;
71570;SDS011;59407;42.682;23.322;2023-03-03T13:12:28;12.93;;;9.07;;
71570;SDS011;59407;42.682;23.322;2023-03-03T13:15:20;13.23;;;7.68;;
71570;SDS011;59407;42.682;23.322;2023-03-03T13:28:55;11.20;;;7.03;;
71570;SDS011;59407;42.682;23.322;2023-03-03T13:31:48;13.27;;;8.38;;
71570;SDS011;59407;42.682;23.322;2023-03-03T13:34:22;11.93;;;7.20;;
71570;SDS011;59407;42.682;23.322;2023-03-03T13:36:54;10.48;;;5.97;;
71570;SDS011;59407;42.682;23.322;2023-03-03T13:39:24;11.50;;;7.32;;
71570;SDS011;59407;42.682;23.322;2023-03-03T13:41:56;9.70;;;6.40;;
71570;SDS011;59407;42.682;23.322;2023-03-03T13:44:43;12.20;;;7.22;;
71570;SDS011;59407;42.682;23.322;2023-03-03T13:49:46;10.98;;;7.32;;
71570;SDS011;59407;42.682;23.322;2023-03-03T13:55:55;12.02;;;7.07;;
71570;SDS011;59407;42.682;23.322;2023-03-03T13:58:37;12.55;;;8.25;;
71570;SDS011;59407;42.682;23.322;2023-03-03T14:22:58;13.27;;;8.40;;
71570;SDS011;59407;42.682;23.322;2023-03-03T14:28:44;13.18;;;8.57;;
71570;SDS011;59407;42.682;23.322;2023-03-03T14:31:40;11.63;;;7.43;;
71570;SDS011;59407;42.682;23.322;2023-03-03T14:37:44;10.70;;;7.22;;
71570;SDS011;59407;42.682;23.322;2023-03-03T14:44:19;9.25;;;6.43;;
71570;SDS011;59407;42.682;23.322;2023-03-03T14:47:21;9.60;;;6.90;;
71570;SDS011;59407;42.682;23.322;2023-03-03T14:52:25;12.75;;;6.47;;
71570;SDS011;59407;42.682;23.322;2023-03-03T14:58:27;9.30;;;6.10;;
71570;SDS011;59407;42.682;23.322;2023-03-03T15:01:43;10.93;;;7.20;;
71570;SDS011;59407;42.682;23.322;2023-03-03T15:09:47;10.63;;;7.70;;
71570;SDS011;59407;42.682;23.322;2023-03-03T15:12:41;11.50;;;7.55;;
71570;SDS011;59407;42.682;23.322;2023-03-03T15:15:21;11.50;;;7.03;;
71570;SDS011;59407;42.682;23.322;2023-03-03T15:17:54;12.25;;;7.50;;
71570;SDS011;59407;42.682;23.322;2023-03-03T15:21:10;13.68;;;7.47;;
71570;SDS011;59407;42.682;23.322;2023-03-03T15:23:50;11.63;;;6.65;;
71570;SDS011;59407;42.682;23.322;2023-03-03T15:42:17;12.32;;;7.80;;
71570;SDS011;59407;42.682;23.322;2023-03-03T15:44:55;12.23;;;8.50;;
71570;SDS011;59407;42.682;23.322;2023-03-03T15:47:35;11.07;;;7.70;;
71570;SDS011;59407;42.682;23.322;2023-03-03T15:50:39;10.43;;;7.05;;
71570;SDS011;59407;42.682;23.322;2023-03-03T16:11:46;11.45;;;7.63;;
71570;SDS011;59407;42.682;23.322;2023-03-03T16:20:44;15.82;;;8.25;;
71570;SDS011;59407;42.682;23.322;2023-03-03T16:26:29;12.13;;;7.90;;
71570;SDS011;59407;42.682;23.322;2023-03-03T16:35:12;10.77;;;7.10;;
71570;SDS011;59407;42.682;23.322;2023-03-03T16:37:58;11.80;;;8.02;;
71570;SDS011;59407;42.682;23.322;2023-03-03T16:40:29;11.30;;;6.93;;
71570;SDS011;59407;42.682;23.322;2023-03-03T16:45:49;10.95;;;7.03;;
71570;SDS011;59407;42.682;23.322;2023-03-03T16:48:36;12.68;;;7.40;;
71570;SDS011;59407;42.682;23.322;2023-03-03T16:54:04;10.40;;;7.68;;
71570;SDS011;59407;42.682;23.322;2023-03-03T16:57:10;10.77;;;8.00;;
71570;SDS011;59407;42.682;23.322;2023-03-03T17:00:43;10.63;;;7.03;;
71570;SDS011;59407;42.682;23.322;2023-03-03T17:02:56;13.18;;;7.70;;
71570;SDS011;59407;42.682;23.322;2023-03-03T17:06:15;12.32;;;7.60;;
71570;SDS011;59407;42.682;23.322;2023-03-03T17:17:42;13.65;;;8.88;;
71570;SDS011;59407;42.682;23.322;2023-03-03T17:20:12;14.35;;;8.40;;
71570;SDS011;59407;42.682;23.322;2023-03-03T17:23:01;13.18;;;10.98;;
71570;SDS011;59407;42.682;23.322;2023-03-03T17:25:56;14.57;;;9.27;;
71570;SDS011;59407;42.682;23.322;2023-03-03T17:43:53;18.00;;;11.60;;
71570;SDS011;59407;42.682;23.322;2023-03-03T17:47:09;20.25;;;11.65;;
71570;SDS011;59407;42.682;23.322;2023-03-03T17:55:16;24.77;;;13.73;;
71570;SDS011;59407;42.682;23.322;2023-03-03T17:58:08;19.15;;;11.85;;
71570;SDS011;59407;42.682;23.322;2023-03-03T18:03:48;18.20;;;10.77;;
71570;SDS011;59407;42.682;23.322;2023-03-03T18:06:29;16.60;;;10.15;;
71570;SDS011;59407;42.682;23.322;2023-03-03T18:09:16;18.13;;;10.47;;
71570;SDS011;59407;42.682;23.322;2023-03-03T18:12:33;16.80;;;10.68;;
71570;SDS011;59407;42.682;23.322;2023-03-03T18:18:22;15.45;;;10.10;;
71570;SDS011;59407;42.682;23.322;2023-03-03T18:21:03;17.80;;;10.68;;
71570;SDS011;59407;42.682;23.322;2023-03-03T18:26:50;16.15;;;10.35;;
71570;SDS011;59407;42.682;23.322;2023-03-03T18:29:25;17.90;;;10.30;;
71570;SDS011;59407;42.682;23.322;2023-03-03T18:36:50;18.63;;;12.15;;
71570;SDS011;59407;42.682;23.322;2023-03-03T18:45:10;22.35;;;13.32;;
71570;SDS011;59407;42.682;23.322;2023-03-03T18:50:50;14.88;;;9.68;;
71570;SDS011;59407;42.682;23.322;2023-03-03T18:55:50;16.90;;;10.98;;
71570;SDS011;59407;42.682;23.322;2023-03-03T19:00:44;15.32;;;9.77;;
71570;SDS011;59407;42.682;23.322;2023-03-03T19:03:32;20.58;;;11.43;;
71570;SDS011;59407;42.682;23.322;2023-03-03T19:07:07;20.63;;;12.20;;
71570;SDS011;59407;42.682;23.322;2023-03-03T19:09:16;20.70;;;12.65;;
71570;SDS011;59407;42.682;23.322;2023-03-03T19:11:51;18.92;;;11.95;;
71570;SDS011;59407;42.682;23.322;2023-03-03T19:16:55;18.88;;;11.65;;
71570;SDS011;59407;42.682;23.322;2023-03-03T19:22:45;26.88;;;16.65;;
71570;SDS011;59407;42.682;23.322;2023-03-03T19:25:27;30.42;;;17.65;;
71570;SDS011;59407;42.682;23.322;2023-03-03T19:28:05;30.38;;;17.85;;
71570;SDS011;59407;42.682;23.322;2023-03-03T19:33:48;23.13;;;15.07;;
71570;SDS011;59407;42.682;23.322;2023-03-03T19:40:15;24.38;;;13.77;;
71570;SDS011;59407;42.682;23.322;2023-03-03T19:56:51;13.27;;;7.05;;
71570;SDS011;59407;42.682;23.322;2023-03-03T20:10:49;8.52;;;5.15;;
71570;SDS011;59407;42.682;23.322;2023-03-03T20:13:31;7.38;;;4.95;;
71570;SDS011;59407;42.682;23.322;2023-03-03T20:38:47;8.93;;;5.63;;
71570;SDS011;59407;42.682;23.322;2023-03-03T20:47:24;8.85;;;5.40;;
71570;SDS011;59407;42.682;23.322;2023-03-03T20:50:03;8.63;;;5.80;;
71570;SDS011;59407;42.682;23.322;2023-03-03T20:55:41;11.20;;;6.25;;
71570;SDS011;59407;42.682;23.322;2023-03-03T20:58:19;8.53;;;5.50;;
71570;SDS011;59407;42.682;23.322;2023-03-03T21:01:08;9.88;;;5.50;;
71570;SDS011;59407;42.682;23.322;2023-03-03T21:03:36;12.52;;;5.68;;
71570;SDS011;59407;42.682;23.322;2023-03-03T21:06:35;10.40;;;6.00;;
71570;SDS011;59407;42.682;23.322;2023-03-03T21:09:06;11.77;;;6.68;;
71570;SDS011;59407;42.682;23.322;2023-03-03T21:11:45;10.20;;;6.17;;
71570;SDS011;59407;42.682;23.322;2023-03-03T21:14:31;10.90;;;6.50;;
71570;SDS011;59407;42.682;23.322;2023-03-03T21:17:00;10.45;;;6.15;;
71570;SDS011;59407;42.682;23.322;2023-03-03T21:19:50;10.20;;;5.53;;
71570;SDS011;59407;42.682;23.322;2023-03-03T21:22:16;10.20;;;6.20;;
71570;SDS011;59407;42.682;23.322;2023-03-03T21:24:51;11.77;;;7.22;;
71570;SDS011;59407;42.682;23.322;2023-03-03T21:27:23;12.27;;;6.68;;
71570;SDS011;59407;42.682;23.322;2023-03-03T21:30:15;12.07;;;7.30;;
71570;SDS011;59407;42.682;23.322;2023-03-03T21:32:45;12.02;;;6.90;;
71570;SDS011;59407;42.682;23.322;2023-03-03T21:35:16;13.10;;;7.17;;
71570;SDS011;59407;42.682;23.322;2023-03-03T21:40:23;13.55;;;7.90;;
71570;SDS011;59407;42.682;23.322;2023-03-03T21:42:53;13.57;;;7.70;;
71570;SDS011;59407;42.682;23.322;2023-03-03T21:45:21;13.02;;;7.80;;
71570;SDS011;59407;42.682;23.322;2023-03-03T21:47:48;14.60;;;8.10;;
71570;SDS011;59407;42.682;23.322;2023-03-03T21:50:15;14.35;;;9.25;;
71570;SDS011;59407;42.682;23.322;2023-03-03T21:52:46;18.75;;;9.77;;
71570;SDS011;59407;42.682;23.322;2023-03-03T21:55:13;14.05;;;8.18;;